createdAt,value
2023-02-11T00:01:40.961Z,5.9
2023-02-11T00:11:41.523Z,5.9
2023-02-11T00:21:42.373Z,5.8
2023-02-11T00:31:43.001Z,5.9
2023-02-11T00:42:06.306Z,5.9
2023-02-11T00:52:06.103Z,6
2023-02-11T01:11:45.097Z,6
2023-02-11T01:21:45.432Z,6.1
2023-02-11T01:31:45.914Z,6.1
2023-02-11T01:41:46.739Z,6.1
2023-02-11T01:51:47.010Z,6.1
2023-02-11T02:01:47.212Z,6.1
2023-02-11T02:11:48.217Z,6.1
2023-02-11T02:32:10.789Z,6
2023-02-11T02:51:50.887Z,5.9
2023-02-11T03:11:51.927Z,5.8
2023-02-11T03:21:52.149Z,5.8
2023-02-11T03:41:53.816Z,5.7
2023-02-11T03:51:54.020Z,5.7
2023-02-11T04:01:54.485Z,5.6
2023-02-11T04:11:55.091Z,5.4
2023-02-11T04:22:01.931Z,5.3
2023-02-11T04:32:02.574Z,5.2
2023-02-11T04:41:55.842Z,5.1
2023-02-11T04:51:56.650Z,5
2023-02-11T05:01:57.157Z,5
2023-02-11T05:12:04.203Z,5
2023-02-11T05:22:04.315Z,5
2023-02-11T05:31:57.960Z,5
2023-02-11T05:41:58.924Z,5
2023-02-11T05:51:59.887Z,5
2023-02-11T06:02:07.434Z,5
2023-02-11T06:12:00.806Z,5.1
2023-02-11T06:52:04.268Z,5.2
2023-02-11T07:02:05.282Z,5.3
2023-02-11T07:12:05.257Z,5.3
2023-02-11T07:32:28.471Z,5.4
2023-02-11T08:02:08.136Z,5.5
2023-02-11T08:12:30.517Z,5.5
2023-02-11T08:22:15.700Z,5.5
2023-02-11T08:32:31.152Z,5.6
2023-02-11T08:42:16.454Z,5.6
2023-02-11T08:52:10.214Z,5.7
2023-02-11T09:02:10.779Z,5.8
2023-02-11T09:22:33.255Z,6
2023-02-11T09:32:12.065Z,6.1
2023-02-11T09:42:12.085Z,6.2
2023-02-11T09:52:12.511Z,6.3
2023-02-11T10:02:12.949Z,6.4
2023-02-11T10:22:13.488Z,6.6
2023-02-11T10:32:21.540Z,6.6
2023-02-11T10:42:21.722Z,6.7
2023-02-11T10:52:15.477Z,6.7
2023-02-11T11:12:23.685Z,6.9
2023-02-11T11:22:39.354Z,6.9
2023-02-11T11:32:24.730Z,7
2023-02-11T11:42:18.403Z,7.1
2023-02-11T11:52:26.155Z,7.2
2023-02-11T12:02:41.266Z,7.3
2023-02-11T12:12:27.256Z,7.3
2023-02-11T12:22:42.206Z,7.4
2023-02-11T12:52:22.324Z,7.6
2023-02-11T13:02:29.735Z,7.7
2023-02-11T13:12:22.836Z,7.8
2023-02-11T13:32:23.941Z,8
2023-02-11T13:42:24.960Z,8.2
2023-02-11T13:52:47.776Z,8.4
2023-02-11T14:02:48.577Z,8.4
2023-02-11T14:12:27.585Z,8.4
2023-02-11T14:22:50.174Z,8.5
2023-02-11T14:32:28.727Z,8.5
2023-02-11T14:42:36.227Z,8.5
2023-02-11T14:52:29.109Z,8.5
2023-02-11T15:02:37.110Z,8.4
2023-02-11T15:12:30.690Z,8.5
2023-02-11T15:22:52.898Z,8.5
2023-02-11T15:32:53.477Z,8.5
2023-02-11T15:42:40.923Z,8.6
2023-02-11T15:52:32.304Z,8.6
2023-02-11T16:22:40.946Z,8.3
2023-02-11T16:32:34.275Z,8.2
2023-02-11T16:42:41.448Z,8.2
2023-02-11T16:52:34.683Z,8.2
2023-02-11T17:12:34.982Z,7.9
2023-02-11T17:52:37.156Z,7.7
2023-02-11T18:02:59.901Z,7.7
2023-02-11T18:12:45.436Z,7.7
2023-02-11T18:22:46.301Z,7.7
2023-02-11T18:32:40.262Z,7.7
2023-02-11T18:42:47.994Z,7.7
2023-02-11T18:52:48.787Z,7.7
2023-02-11T19:03:04.765Z,7.6
2023-02-11T19:12:43.718Z,7.7
2023-02-11T19:23:06.013Z,7.7
2023-02-11T19:42:52.143Z,7.7
2023-02-11T19:52:45.198Z,7.6
2023-02-11T20:02:45.732Z,7.6
2023-02-11T20:12:46.292Z,7.6
2023-02-11T20:32:46.652Z,7.6
2023-02-11T20:53:10.531Z,7.5
2023-02-11T21:02:55.696Z,7.5
2023-02-11T21:12:49.890Z,7.5
2023-02-11T21:33:12.585Z,7.5
2023-02-11T21:42:51.350Z,7.5
2023-02-11T21:52:51.749Z,7.5
2023-02-11T22:12:59.722Z,7.5
2023-02-11T22:32:52.787Z,7.5
2023-02-11T23:12:55.002Z,7.6
2023-02-11T23:33:18.344Z,7.5
2023-02-11T23:43:18.835Z,7.4
2023-02-11T23:52:57.681Z,7.4
